sensor_id;sensor_type;location;lat;lon;timestamp;P1;durP1;ratioP1;P2;durP2;ratioP2
80961;SDS011;70424;55.154;14.722;2023-11-21T00:01:44;7.68;;;4.97;;
80961;SDS011;70424;55.154;14.722;2023-11-21T00:04:09;8.40;;;4.80;;
80961;SDS011;70424;55.154;14.722;2023-11-21T00:06:35;8.45;;;5.88;;
80961;SDS011;70424;55.154;14.722;2023-11-21T00:09:00;8.00;;;5.00;;
80961;SDS011;70424;55.154;14.722;2023-11-21T00:11:26;8.40;;;5.80;;
80961;SDS011;70424;55.154;14.722;2023-11-21T00:13:51;9.70;;;6.75;;
80961;SDS011;70424;55.154;14.722;2023-11-21T00:16:16;8.80;;;6.00;;
80961;SDS011;70424;55.154;14.722;2023-11-21T00:18:42;8.63;;;5.72;;
80961;SDS011;70424;55.154;14.722;2023-11-21T00:21:08;9.60;;;5.95;;
80961;SDS011;70424;55.154;14.722;2023-11-21T00:23:34;9.10;;;5.97;;
80961;SDS011;70424;55.154;14.722;2023-11-21T00:25:59;9.80;;;6.25;;
80961;SDS011;70424;55.154;14.722;2023-11-21T00:28:24;11.25;;;6.40;;
80961;SDS011;70424;55.154;14.722;2023-11-21T00:30:51;9.30;;;5.55;;
80961;SDS011;70424;55.154;14.722;2023-11-21T00:33:16;10.63;;;6.35;;
80961;SDS011;70424;55.154;14.722;2023-11-21T00:35:41;10.55;;;6.22;;
80961;SDS011;70424;55.154;14.722;2023-11-21T00:38:07;8.93;;;5.95;;
80961;SDS011;70424;55.154;14.722;2023-11-21T00:40:33;8.18;;;6.20;;
80961;SDS011;70424;55.154;14.722;2023-11-21T00:42:58;10.23;;;5.88;;
80961;SDS011;70424;55.154;14.722;2023-11-21T00:45:24;9.10;;;6.10;;
80961;SDS011;70424;55.154;14.722;2023-11-21T00:47:49;8.68;;;5.03;;
80961;SDS011;70424;55.154;14.722;2023-11-21T00:50:15;9.20;;;5.43;;
80961;SDS011;70424;55.154;14.722;2023-11-21T00:52:40;11.32;;;6.05;;
80961;SDS011;70424;55.154;14.722;2023-11-21T00:55:06;8.85;;;5.63;;
80961;SDS011;70424;55.154;14.722;2023-11-21T00:57:32;9.57;;;5.65;;
80961;SDS011;70424;55.154;14.722;2023-11-21T00:59:58;9.57;;;5.35;;
80961;SDS011;70424;55.154;14.722;2023-11-21T01:02:23;9.32;;;5.70;;
80961;SDS011;70424;55.154;14.722;2023-11-21T01:04:48;10.77;;;6.18;;
80961;SDS011;70424;55.154;14.722;2023-11-21T01:07:14;10.00;;;6.03;;
80961;SDS011;70424;55.154;14.722;2023-11-21T01:09:39;9.05;;;5.80;;
80961;SDS011;70424;55.154;14.722;2023-11-21T01:12:04;8.63;;;5.53;;
80961;SDS011;70424;55.154;14.722;2023-11-21T01:14:30;8.52;;;5.95;;
80961;SDS011;70424;55.154;14.722;2023-11-21T01:16:55;9.15;;;6.15;;
80961;SDS011;70424;55.154;14.722;2023-11-21T01:19:21;10.48;;;6.38;;
80961;SDS011;70424;55.154;14.722;2023-11-21T01:21:49;10.52;;;6.50;;
80961;SDS011;70424;55.154;14.722;2023-11-21T01:24:14;9.13;;;6.22;;
80961;SDS011;70424;55.154;14.722;2023-11-21T01:26:40;9.93;;;6.60;;
80961;SDS011;70424;55.154;14.722;2023-11-21T01:29:05;10.43;;;6.15;;
80961;SDS011;70424;55.154;14.722;2023-11-21T01:31:30;9.90;;;6.63;;
80961;SDS011;70424;55.154;14.722;2023-11-21T01:33:56;9.75;;;6.55;;
80961;SDS011;70424;55.154;14.722;2023-11-21T01:36:21;10.98;;;5.95;;
80961;SDS011;70424;55.154;14.722;2023-11-21T01:38:47;10.40;;;5.72;;
80961;SDS011;70424;55.154;14.722;2023-11-21T01:41:15;8.20;;;5.50;;
80961;SDS011;70424;55.154;14.722;2023-11-21T01:43:41;10.13;;;6.38;;
80961;SDS011;70424;55.154;14.722;2023-11-21T01:46:06;9.10;;;5.55;;
80961;SDS011;70424;55.154;14.722;2023-11-21T01:48:33;10.20;;;6.57;;
80961;SDS011;70424;55.154;14.722;2023-11-21T01:50:59;9.48;;;5.85;;
80961;SDS011;70424;55.154;14.722;2023-11-21T01:53:25;9.55;;;5.82;;
80961;SDS011;70424;55.154;14.722;2023-11-21T01:55:51;8.85;;;5.95;;
80961;SDS011;70424;55.154;14.722;2023-11-21T01:58:17;9.38;;;5.38;;
80961;SDS011;70424;55.154;14.722;2023-11-21T02:00:42;11.15;;;6.05;;
80961;SDS011;70424;55.154;14.722;2023-11-21T02:03:08;10.05;;;6.03;;
80961;SDS011;70424;55.154;14.722;2023-11-21T02:05:35;10.70;;;6.30;;
80961;SDS011;70424;55.154;14.722;2023-11-21T02:08:01;9.80;;;6.22;;
80961;SDS011;70424;55.154;14.722;2023-11-21T02:10:27;12.35;;;6.90;;
80961;SDS011;70424;55.154;14.722;2023-11-21T02:12:54;10.95;;;6.22;;
80961;SDS011;70424;55.154;14.722;2023-11-21T02:15:21;11.27;;;6.00;;
80961;SDS011;70424;55.154;14.722;2023-11-21T02:17:47;11.55;;;6.25;;
80961;SDS011;70424;55.154;14.722;2023-11-21T02:20:19;8.38;;;4.90;;
80961;SDS011;70424;55.154;14.722;2023-11-21T02:22:56;8.60;;;5.35;;
80961;SDS011;70424;55.154;14.722;2023-11-21T02:25:28;8.98;;;5.80;;
80961;SDS011;70424;55.154;14.722;2023-11-21T02:27:55;9.27;;;5.65;;
80961;SDS011;70424;55.154;14.722;2023-11-21T02:30:21;9.20;;;5.70;;
80961;SDS011;70424;55.154;14.722;2023-11-21T02:32:48;8.90;;;6.00;;
80961;SDS011;70424;55.154;14.722;2023-11-21T02:35:13;8.98;;;5.97;;
80961;SDS011;70424;55.154;14.722;2023-11-21T02:37:40;10.83;;;6.43;;
80961;SDS011;70424;55.154;14.722;2023-11-21T02:40:07;9.35;;;6.18;;
80961;SDS011;70424;55.154;14.722;2023-11-21T02:42:34;10.77;;;6.63;;
80961;SDS011;70424;55.154;14.722;2023-11-21T02:45:00;8.60;;;5.95;;
80961;SDS011;70424;55.154;14.722;2023-11-21T02:47:25;9.32;;;6.53;;
80961;SDS011;70424;55.154;14.722;2023-11-21T02:49:50;9.32;;;5.97;;
80961;SDS011;70424;55.154;14.722;2023-11-21T02:52:17;8.27;;;5.68;;
80961;SDS011;70424;55.154;14.722;2023-11-21T02:54:42;8.95;;;6.07;;
80961;SDS011;70424;55.154;14.722;2023-11-21T02:57:08;8.55;;;4.97;;
80961;SDS011;70424;55.154;14.722;2023-11-21T02:59:33;7.80;;;4.60;;
80961;SDS011;70424;55.154;14.722;2023-11-21T03:01:59;7.88;;;5.30;;
80961;SDS011;70424;55.154;14.722;2023-11-21T03:04:25;10.07;;;5.30;;
80961;SDS011;70424;55.154;14.722;2023-11-21T03:06:51;8.20;;;5.22;;
80961;SDS011;70424;55.154;14.722;2023-11-21T03:09:16;9.18;;;5.40;;
80961;SDS011;70424;55.154;14.722;2023-11-21T03:11:41;10.25;;;5.50;;
80961;SDS011;70424;55.154;14.722;2023-11-21T03:14:07;7.40;;;5.18;;
80961;SDS011;70424;55.154;14.722;2023-11-21T03:16:32;8.55;;;5.20;;
80961;SDS011;70424;55.154;14.722;2023-11-21T03:18:57;7.78;;;5.40;;
80961;SDS011;70424;55.154;14.722;2023-11-21T03:21:23;8.10;;;5.07;;
80961;SDS011;70424;55.154;14.722;2023-11-21T03:23:49;8.45;;;5.28;;
80961;SDS011;70424;55.154;14.722;2023-11-21T03:26:15;6.85;;;4.63;;
80961;SDS011;70424;55.154;14.722;2023-11-21T03:28:41;8.50;;;4.82;;
80961;SDS011;70424;55.154;14.722;2023-11-21T03:31:07;8.57;;;5.18;;
80961;SDS011;70424;55.154;14.722;2023-11-21T03:33:34;7.82;;;5.03;;
80961;SDS011;70424;55.154;14.722;2023-11-21T03:36:00;6.93;;;4.70;;
80961;SDS011;70424;55.154;14.722;2023-11-21T03:38:25;7.05;;;4.57;;
80961;SDS011;70424;55.154;14.722;2023-11-21T03:40:51;7.43;;;4.05;;
80961;SDS011;70424;55.154;14.722;2023-11-21T03:43:16;6.68;;;4.40;;
80961;SDS011;70424;55.154;14.722;2023-11-21T03:45:41;6.95;;;4.28;;
80961;SDS011;70424;55.154;14.722;2023-11-21T03:48:07;6.20;;;4.10;;
80961;SDS011;70424;55.154;14.722;2023-11-21T03:50:33;6.72;;;3.92;;
80961;SDS011;70424;55.154;14.722;2023-11-21T03:52:59;7.90;;;3.70;;
80961;SDS011;70424;55.154;14.722;2023-11-21T03:55:24;6.55;;;3.78;;
80961;SDS011;70424;55.154;14.722;2023-11-21T03:57:50;6.75;;;4.13;;
80961;SDS011;70424;55.154;14.722;2023-11-21T04:00:16;7.45;;;3.72;;
80961;SDS011;70424;55.154;14.722;2023-11-21T04:02:42;7.40;;;3.95;;
80961;SDS011;70424;55.154;14.722;2023-11-21T04:05:07;7.05;;;4.18;;
80961;SDS011;70424;55.154;14.722;2023-11-21T04:07:34;7.95;;;4.13;;
80961;SDS011;70424;55.154;14.722;2023-11-21T04:10:00;6.40;;;3.88;;
80961;SDS011;70424;55.154;14.722;2023-11-21T04:12:25;7.65;;;4.05;;
80961;SDS011;70424;55.154;14.722;2023-11-21T04:14:51;7.40;;;4.18;;
80961;SDS011;70424;55.154;14.722;2023-11-21T04:17:18;7.07;;;4.10;;
80961;SDS011;70424;55.154;14.722;2023-11-21T04:19:44;6.47;;;3.90;;
80961;SDS011;70424;55.154;14.722;2023-11-21T04:22:11;7.55;;;4.50;;
80961;SDS011;70424;55.154;14.722;2023-11-21T04:24:36;7.57;;;4.63;;
80961;SDS011;70424;55.154;14.722;2023-11-21T04:27:01;8.63;;;4.60;;
80961;SDS011;70424;55.154;14.722;2023-11-21T04:29:27;7.63;;;4.40;;
80961;SDS011;70424;55.154;14.722;2023-11-21T04:31:53;7.65;;;4.47;;
80961;SDS011;70424;55.154;14.722;2023-11-21T04:34:18;7.07;;;4.63;;
80961;SDS011;70424;55.154;14.722;2023-11-21T04:36:43;7.00;;;4.07;;
80961;SDS011;70424;55.154;14.722;2023-11-21T04:39:12;7.25;;;4.32;;
80961;SDS011;70424;55.154;14.722;2023-11-21T04:41:37;8.38;;;4.78;;
80961;SDS011;70424;55.154;14.722;2023-11-21T04:44:04;7.18;;;3.80;;
80961;SDS011;70424;55.154;14.722;2023-11-21T04:46:30;6.50;;;4.00;;
80961;SDS011;70424;55.154;14.722;2023-11-21T04:48:57;5.78;;;3.67;;
80961;SDS011;70424;55.154;14.722;2023-11-21T04:51:22;7.43;;;3.33;;
80961;SDS011;70424;55.154;14.722;2023-11-21T04:53:47;57.13;;;19.75;;
80961;SDS011;70424;55.154;14.722;2023-11-21T04:56:13;11.23;;;4.35;;
80961;SDS011;70424;55.154;14.722;2023-11-21T04:58:38;6.85;;;3.53;;
80961;SDS011;70424;55.154;14.722;2023-11-21T05:01:05;7.93;;;4.13;;
80961;SDS011;70424;55.154;14.722;2023-11-21T05:03:31;4.60;;;3.08;;
80961;SDS011;70424;55.154;14.722;2023-11-21T05:05:57;6.88;;;3.53;;
80961;SDS011;70424;55.154;14.722;2023-11-21T05:08:22;5.90;;;3.25;;
80961;SDS011;70424;55.154;14.722;2023-11-21T05:10:47;5.85;;;3.28;;
80961;SDS011;70424;55.154;14.722;2023-11-21T05:13:14;5.75;;;2.90;;
80961;SDS011;70424;55.154;14.722;2023-11-21T05:15:42;4.32;;;2.58;;
80961;SDS011;70424;55.154;14.722;2023-11-21T05:18:07;5.45;;;3.10;;
80961;SDS011;70424;55.154;14.722;2023-11-21T05:20:33;6.30;;;2.85;;
80961;SDS011;70424;55.154;14.722;2023-11-21T05:22:58;5.68;;;3.20;;
80961;SDS011;70424;55.154;14.722;2023-11-21T05:25:24;5.63;;;2.92;;
80961;SDS011;70424;55.154;14.722;2023-11-21T05:27:50;5.10;;;3.25;;
80961;SDS011;70424;55.154;14.722;2023-11-21T05:30:15;6.40;;;3.00;;
80961;SDS011;70424;55.154;14.722;2023-11-21T05:32:40;4.88;;;2.75;;
80961;SDS011;70424;55.154;14.722;2023-11-21T05:35:09;3.92;;;2.58;;
80961;SDS011;70424;55.154;14.722;2023-11-21T05:37:40;6.28;;;2.88;;
80961;SDS011;70424;55.154;14.722;2023-11-21T05:40:06;5.47;;;2.78;;
80961;SDS011;70424;55.154;14.722;2023-11-21T05:42:33;7.15;;;3.30;;
80961;SDS011;70424;55.154;14.722;2023-11-21T05:44:59;8.60;;;3.47;;
80961;SDS011;70424;55.154;14.722;2023-11-21T05:47:34;7.38;;;2.78;;
80961;SDS011;70424;55.154;14.722;2023-11-21T05:50:00;6.60;;;3.22;;
80961;SDS011;70424;55.154;14.722;2023-11-21T05:52:26;4.50;;;2.38;;
80961;SDS011;70424;55.154;14.722;2023-11-21T05:54:51;4.90;;;2.78;;
80961;SDS011;70424;55.154;14.722;2023-11-21T05:57:16;3.90;;;2.63;;
80961;SDS011;70424;55.154;14.722;2023-11-21T05:59:42;4.75;;;3.03;;
80961;SDS011;70424;55.154;14.722;2023-11-21T06:02:07;4.93;;;2.83;;
80961;SDS011;70424;55.154;14.722;2023-11-21T06:04:32;4.10;;;2.33;;
80961;SDS011;70424;55.154;14.722;2023-11-21T06:06:58;4.53;;;2.92;;
80961;SDS011;70424;55.154;14.722;2023-11-21T06:09:23;5.22;;;2.70;;
80961;SDS011;70424;55.154;14.722;2023-11-21T06:11:50;3.95;;;2.58;;
80961;SDS011;70424;55.154;14.722;2023-11-21T06:14:15;4.88;;;2.40;;
80961;SDS011;70424;55.154;14.722;2023-11-21T06:16:42;3.85;;;2.13;;
80961;SDS011;70424;55.154;14.722;2023-11-21T06:19:10;4.22;;;2.25;;
80961;SDS011;70424;55.154;14.722;2023-11-21T06:21:35;4.50;;;2.55;;
80961;SDS011;70424;55.154;14.722;2023-11-21T06:24:00;4.65;;;2.63;;
80961;SDS011;70424;55.154;14.722;2023-11-21T06:26:26;4.70;;;2.80;;
80961;SDS011;70424;55.154;14.722;2023-11-21T06:28:52;5.03;;;2.83;;
80961;SDS011;70424;55.154;14.722;2023-11-21T06:31:18;4.13;;;2.15;;
80961;SDS011;70424;55.154;14.722;2023-11-21T06:33:44;5.28;;;2.70;;
80961;SDS011;70424;55.154;14.722;2023-11-21T06:36:09;4.65;;;2.58;;
80961;SDS011;70424;55.154;14.722;2023-11-21T06:38:36;4.45;;;2.60;;
80961;SDS011;70424;55.154;14.722;2023-11-21T06:41:02;4.25;;;2.63;;
80961;SDS011;70424;55.154;14.722;2023-11-21T06:43:27;4.80;;;2.63;;
80961;SDS011;70424;55.154;14.722;2023-11-21T06:45:52;6.85;;;3.15;;
80961;SDS011;70424;55.154;14.722;2023-11-21T06:48:18;5.15;;;2.75;;
80961;SDS011;70424;55.154;14.722;2023-11-21T06:50:43;5.82;;;2.90;;
80961;SDS011;70424;55.154;14.722;2023-11-21T06:53:09;6.28;;;2.97;;
80961;SDS011;70424;55.154;14.722;2023-11-21T06:55:34;5.18;;;3.10;;
80961;SDS011;70424;55.154;14.722;2023-11-21T06:58:00;5.80;;;3.33;;
80961;SDS011;70424;55.154;14.722;2023-11-21T07:00:26;6.65;;;3.80;;
80961;SDS011;70424;55.154;14.722;2023-11-21T07:02:53;5.05;;;2.90;;
80961;SDS011;70424;55.154;14.722;2023-11-21T07:05:20;6.78;;;3.30;;
80961;SDS011;70424;55.154;14.722;2023-11-21T07:07:47;5.85;;;3.05;;
80961;SDS011;70424;55.154;14.722;2023-11-21T07:10:13;6.90;;;3.28;;
80961;SDS011;70424;55.154;14.722;2023-11-21T07:12:39;5.45;;;2.70;;
80961;SDS011;70424;55.154;14.722;2023-11-21T07:15:05;5.80;;;2.75;;
80961;SDS011;70424;55.154;14.722;2023-11-21T07:17:34;4.53;;;2.83;;
80961;SDS011;70424;55.154;14.722;2023-11-21T07:20:00;5.75;;;3.25;;
80961;SDS011;70424;55.154;14.722;2023-11-21T07:22:26;5.68;;;3.10;;
80961;SDS011;70424;55.154;14.722;2023-11-21T07:24:51;4.63;;;2.90;;
80961;SDS011;70424;55.154;14.722;2023-11-21T07:27:17;7.90;;;3.40;;
80961;SDS011;70424;55.154;14.722;2023-11-21T07:29:42;5.35;;;3.10;;
80961;SDS011;70424;55.154;14.722;2023-11-21T07:32:07;5.40;;;3.03;;
80961;SDS011;70424;55.154;14.722;2023-11-21T07:34:34;5.32;;;3.05;;
80961;SDS011;70424;55.154;14.722;2023-11-21T07:36:59;6.22;;;2.90;;
80961;SDS011;70424;55.154;14.722;2023-11-21T07:39:25;4.28;;;2.38;;
80961;SDS011;70424;55.154;14.722;2023-11-21T07:41:50;5.25;;;2.90;;
80961;SDS011;70424;55.154;14.722;2023-11-21T07:44:16;4.55;;;2.63;;
80961;SDS011;70424;55.154;14.722;2023-11-21T07:46:42;5.20;;;2.75;;
80961;SDS011;70424;55.154;14.722;2023-11-21T07:49:08;4.20;;;2.40;;
80961;SDS011;70424;55.154;14.722;2023-11-21T07:51:34;4.72;;;2.28;;
80961;SDS011;70424;55.154;14.722;2023-11-21T07:53:59;4.07;;;2.42;;
80961;SDS011;70424;55.154;14.722;2023-11-21T07:56:25;3.85;;;2.20;;
80961;SDS011;70424;55.154;14.722;2023-11-21T07:58:51;5.90;;;2.63;;
80961;SDS011;70424;55.154;14.722;2023-11-21T08:01:16;5.00;;;2.75;;
80961;SDS011;70424;55.154;14.722;2023-11-21T08:03:41;4.97;;;2.90;;
80961;SDS011;70424;55.154;14.722;2023-11-21T08:06:07;6.00;;;2.30;;
80961;SDS011;70424;55.154;14.722;2023-11-21T08:08:32;5.55;;;2.90;;
80961;SDS011;70424;55.154;14.722;2023-11-21T08:10:58;5.70;;;2.65;;
80961;SDS011;70424;55.154;14.722;2023-11-21T08:13:25;6.80;;;2.80;;
80961;SDS011;70424;55.154;14.722;2023-11-21T08:15:54;7.07;;;3.00;;
80961;SDS011;70424;55.154;14.722;2023-11-21T08:18:21;5.95;;;2.85;;
80961;SDS011;70424;55.154;14.722;2023-11-21T08:20:46;5.45;;;2.78;;
80961;SDS011;70424;55.154;14.722;2023-11-21T08:23:14;3.85;;;2.40;;
80961;SDS011;70424;55.154;14.722;2023-11-21T08:25:42;4.72;;;2.40;;
80961;SDS011;70424;55.154;14.722;2023-11-21T08:28:08;4.60;;;2.40;;
80961;SDS011;70424;55.154;14.722;2023-11-21T08:30:34;6.72;;;3.05;;
80961;SDS011;70424;55.154;14.722;2023-11-21T08:33:00;5.22;;;2.83;;
80961;SDS011;70424;55.154;14.722;2023-11-21T08:35:25;4.82;;;2.70;;
80961;SDS011;70424;55.154;14.722;2023-11-21T08:37:53;4.50;;;2.50;;
80961;SDS011;70424;55.154;14.722;2023-11-21T08:40:19;5.05;;;2.67;;
80961;SDS011;70424;55.154;14.722;2023-11-21T08:42:46;6.50;;;2.17;;
80961;SDS011;70424;55.154;14.722;2023-11-21T08:45:13;4.30;;;2.38;;
80961;SDS011;70424;55.154;14.722;2023-11-21T08:47:42;5.00;;;1.85;;
80961;SDS011;70424;55.154;14.722;2023-11-21T08:50:09;4.00;;;2.25;;
80961;SDS011;70424;55.154;14.722;2023-11-21T08:52:35;9.05;;;2.80;;
80961;SDS011;70424;55.154;14.722;2023-11-21T08:55:02;5.35;;;2.20;;
80961;SDS011;70424;55.154;14.722;2023-11-21T08:57:32;4.88;;;2.50;;
80961;SDS011;70424;55.154;14.722;2023-11-21T09:00:01;5.53;;;2.53;;
80961;SDS011;70424;55.154;14.722;2023-11-21T09:02:27;5.15;;;2.25;;
80961;SDS011;70424;55.154;14.722;2023-11-21T09:04:53;3.05;;;2.05;;
80961;SDS011;70424;55.154;14.722;2023-11-21T09:07:18;7.35;;;2.47;;
80961;SDS011;70424;55.154;14.722;2023-11-21T09:09:45;6.25;;;2.70;;
80961;SDS011;70424;55.154;14.722;2023-11-21T09:12:14;4.10;;;2.20;;
80961;SDS011;70424;55.154;14.722;2023-11-21T09:14:39;4.53;;;2.20;;
80961;SDS011;70424;55.154;14.722;2023-11-21T09:17:05;4.30;;;2.10;;
80961;SDS011;70424;55.154;14.722;2023-11-21T09:19:36;4.18;;;2.35;;
80961;SDS011;70424;55.154;14.722;2023-11-21T09:22:04;5.28;;;2.42;;
80961;SDS011;70424;55.154;14.722;2023-11-21T09:24:30;5.15;;;2.90;;
80961;SDS011;70424;55.154;14.722;2023-11-21T09:26:56;5.22;;;2.22;;
80961;SDS011;70424;55.154;14.722;2023-11-21T09:29:21;3.00;;;2.00;;
80961;SDS011;70424;55.154;14.722;2023-11-21T09:31:47;7.65;;;3.03;;
80961;SDS011;70424;55.154;14.722;2023-11-21T09:34:13;3.78;;;2.30;;
80961;SDS011;70424;55.154;14.722;2023-11-21T09:36:39;4.72;;;2.30;;
80961;SDS011;70424;55.154;14.722;2023-11-21T09:39:06;3.85;;;2.03;;
80961;SDS011;70424;55.154;14.722;2023-11-21T09:41:36;3.53;;;2.10;;
80961;SDS011;70424;55.154;14.722;2023-11-21T09:44:09;3.65;;;2.20;;
80961;SDS011;70424;55.154;14.722;2023-11-21T09:46:42;5.18;;;2.92;;
80961;SDS011;70424;55.154;14.722;2023-11-21T09:49:08;4.47;;;2.20;;
80961;SDS011;70424;55.154;14.722;2023-11-21T09:51:38;4.50;;;2.20;;
80961;SDS011;70424;55.154;14.722;2023-11-21T09:54:05;4.30;;;2.25;;
80961;SDS011;70424;55.154;14.722;2023-11-21T09:56:34;4.22;;;2.00;;
80961;SDS011;70424;55.154;14.722;2023-11-21T09:59:00;4.47;;;2.10;;
80961;SDS011;70424;55.154;14.722;2023-11-21T10:01:31;3.80;;;2.22;;
80961;SDS011;70424;55.154;14.722;2023-11-21T10:03:57;3.75;;;2.22;;
80961;SDS011;70424;55.154;14.722;2023-11-21T10:06:23;6.47;;;2.90;;
80961;SDS011;70424;55.154;14.722;2023-11-21T10:11:18;4.00;;;2.10;;
80961;SDS011;70424;55.154;14.722;2023-11-21T10:13:45;5.10;;;2.30;;
80961;SDS011;70424;55.154;14.722;2023-11-21T10:18:41;4.07;;;2.00;;
80961;SDS011;70424;55.154;14.722;2023-11-21T10:21:07;4.28;;;2.20;;
80961;SDS011;70424;55.154;14.722;2023-11-21T10:23:34;5.47;;;2.50;;
80961;SDS011;70424;55.154;14.722;2023-11-21T10:25:59;3.97;;;2.33;;
80961;SDS011;70424;55.154;14.722;2023-11-21T10:28:26;5.32;;;2.45;;
80961;SDS011;70424;55.154;14.722;2023-11-21T10:30:51;3.78;;;2.28;;
80961;SDS011;70424;55.154;14.722;2023-11-21T10:33:17;3.85;;;2.30;;
80961;SDS011;70424;55.154;14.722;2023-11-21T10:35:52;3.35;;;2.00;;
80961;SDS011;70424;55.154;14.722;2023-11-21T10:38:20;6.55;;;2.10;;
80961;SDS011;70424;55.154;14.722;2023-11-21T10:40:50;4.50;;;2.40;;
80961;SDS011;70424;55.154;14.722;2023-11-21T10:43:16;3.45;;;1.90;;
80961;SDS011;70424;55.154;14.722;2023-11-21T10:45:42;4.93;;;2.17;;
80961;SDS011;70424;55.154;14.722;2023-11-21T10:48:17;4.80;;;2.25;;
80961;SDS011;70424;55.154;14.722;2023-11-21T10:50:43;7.43;;;2.85;;
80961;SDS011;70424;55.154;14.722;2023-11-21T10:53:09;3.80;;;1.88;;
80961;SDS011;70424;55.154;14.722;2023-11-21T10:55:34;4.93;;;2.50;;
80961;SDS011;70424;55.154;14.722;2023-11-21T10:58:03;3.83;;;1.90;;
80961;SDS011;70424;55.154;14.722;2023-11-21T11:00:31;4.70;;;2.50;;
80961;SDS011;70424;55.154;14.722;2023-11-21T11:02:57;4.57;;;2.80;;
80961;SDS011;70424;55.154;14.722;2023-11-21T11:05:24;4.95;;;2.30;;
80961;SDS011;70424;55.154;14.722;2023-11-21T11:07:52;2.97;;;2.08;;
80961;SDS011;70424;55.154;14.722;2023-11-21T11:10:30;4.18;;;2.22;;
80961;SDS011;70424;55.154;14.722;2023-11-21T11:12:55;4.75;;;2.75;;
80961;SDS011;70424;55.154;14.722;2023-11-21T11:15:26;5.20;;;2.80;;
80961;SDS011;70424;55.154;14.722;2023-11-21T11:17:52;5.65;;;2.40;;
80961;SDS011;70424;55.154;14.722;2023-11-21T11:20:29;3.67;;;2.28;;
80961;SDS011;70424;55.154;14.722;2023-11-21T11:28:27;4.35;;;2.40;;
80961;SDS011;70424;55.154;14.722;2023-11-21T11:33:43;3.40;;;1.90;;
80961;SDS011;70424;55.154;14.722;2023-11-21T11:36:23;3.33;;;2.25;;
80961;SDS011;70424;55.154;14.722;2023-11-21T11:38:54;3.40;;;1.90;;
80961;SDS011;70424;55.154;14.722;2023-11-21T11:41:39;3.95;;;2.20;;
80961;SDS011;70424;55.154;14.722;2023-11-21T11:44:09;4.32;;;2.30;;
80961;SDS011;70424;55.154;14.722;2023-11-21T11:47:15;4.60;;;2.30;;
80961;SDS011;70424;55.154;14.722;2023-11-21T11:52:45;4.40;;;2.00;;
80961;SDS011;70424;55.154;14.722;2023-11-21T11:55:12;4.15;;;2.15;;
80961;SDS011;70424;55.154;14.722;2023-11-21T11:57:40;4.10;;;2.30;;
80961;SDS011;70424;55.154;14.722;2023-11-21T12:00:13;4.20;;;2.33;;
80961;SDS011;70424;55.154;14.722;2023-11-21T12:02:53;3.88;;;2.20;;
80961;SDS011;70424;55.154;14.722;2023-11-21T12:05:23;4.03;;;2.25;;
80961;SDS011;70424;55.154;14.722;2023-11-21T12:07:56;2.78;;;1.90;;
80961;SDS011;70424;55.154;14.722;2023-11-21T12:10:26;3.30;;;1.90;;
80961;SDS011;70424;55.154;14.722;2023-11-21T12:12:57;3.42;;;2.30;;
80961;SDS011;70424;55.154;14.722;2023-11-21T12:15:24;4.43;;;2.40;;
80961;SDS011;70424;55.154;14.722;2023-11-21T12:17:50;4.03;;;2.20;;
80961;SDS011;70424;55.154;14.722;2023-11-21T12:20:21;3.42;;;2.10;;
80961;SDS011;70424;55.154;14.722;2023-11-21T12:22:47;3.65;;;2.10;;
80961;SDS011;70424;55.154;14.722;2023-11-21T12:25:18;3.37;;;2.13;;
80961;SDS011;70424;55.154;14.722;2023-11-21T12:27:48;5.53;;;2.30;;
80961;SDS011;70424;55.154;14.722;2023-11-21T12:30:15;5.70;;;2.47;;
80961;SDS011;70424;55.154;14.722;2023-11-21T12:32:42;4.60;;;2.33;;
80961;SDS011;70424;55.154;14.722;2023-11-21T12:35:09;5.47;;;2.28;;
80961;SDS011;70424;55.154;14.722;2023-11-21T12:37:36;3.90;;;2.20;;
80961;SDS011;70424;55.154;14.722;2023-11-21T12:40:04;4.65;;;2.38;;
80961;SDS011;70424;55.154;14.722;2023-11-21T12:42:41;4.60;;;2.20;;
80961;SDS011;70424;55.154;14.722;2023-11-21T12:47:42;3.75;;;2.08;;
80961;SDS011;70424;55.154;14.722;2023-11-21T12:50:09;5.57;;;2.42;;
80961;SDS011;70424;55.154;14.722;2023-11-21T12:52:44;3.53;;;2.00;;
80961;SDS011;70424;55.154;14.722;2023-11-21T12:55:21;6.90;;;2.67;;
80961;SDS011;70424;55.154;14.722;2023-11-21T12:57:51;5.45;;;2.63;;
80961;SDS011;70424;55.154;14.722;2023-11-21T13:00:20;4.30;;;2.10;;
80961;SDS011;70424;55.154;14.722;2023-11-21T13:02:56;5.35;;;2.40;;
80961;SDS011;70424;55.154;14.722;2023-11-21T13:05:26;3.95;;;2.13;;
80961;SDS011;70424;55.154;14.722;2023-11-21T13:07:53;4.53;;;2.33;;
80961;SDS011;70424;55.154;14.722;2023-11-21T13:10:23;5.70;;;1.92;;
80961;SDS011;70424;55.154;14.722;2023-11-21T13:12:51;3.25;;;1.80;;
80961;SDS011;70424;55.154;14.722;2023-11-21T13:15:17;3.22;;;1.85;;
80961;SDS011;70424;55.154;14.722;2023-11-21T13:17:43;3.30;;;1.50;;
80961;SDS011;70424;55.154;14.722;2023-11-21T13:20:10;4.65;;;2.08;;
80961;SDS011;70424;55.154;14.722;2023-11-21T13:22:44;3.97;;;2.08;;
80961;SDS011;70424;55.154;14.722;2023-11-21T13:25:11;4.72;;;2.00;;
80961;SDS011;70424;55.154;14.722;2023-11-21T13:27:39;3.38;;;1.80;;
80961;SDS011;70424;55.154;14.722;2023-11-21T13:30:05;2.83;;;1.65;;
80961;SDS011;70424;55.154;14.722;2023-11-21T13:32:33;4.03;;;1.70;;
80961;SDS011;70424;55.154;14.722;2023-11-21T13:34:59;1.50;;;1.25;;
80961;SDS011;70424;55.154;14.722;2023-11-21T13:37:25;2.42;;;1.50;;
80961;SDS011;70424;55.154;14.722;2023-11-21T13:39:53;1.55;;;1.05;;
80961;SDS011;70424;55.154;14.722;2023-11-21T13:42:19;2.35;;;1.15;;
80961;SDS011;70424;55.154;14.722;2023-11-21T13:44:47;2.33;;;1.10;;
80961;SDS011;70424;55.154;14.722;2023-11-21T13:47:14;1.52;;;1.10;;
80961;SDS011;70424;55.154;14.722;2023-11-21T13:49:39;1.83;;;1.00;;
80961;SDS011;70424;55.154;14.722;2023-11-21T13:52:06;2.38;;;1.40;;
80961;SDS011;70424;55.154;14.722;2023-11-21T13:54:32;2.63;;;1.20;;
80961;SDS011;70424;55.154;14.722;2023-11-21T13:56:58;2.00;;;1.02;;
80961;SDS011;70424;55.154;14.722;2023-11-21T13:59:25;1.17;;;0.80;;
80961;SDS011;70424;55.154;14.722;2023-11-21T14:01:53;1.75;;;1.15;;
80961;SDS011;70424;55.154;14.722;2023-11-21T14:04:24;1.65;;;1.00;;
80961;SDS011;70424;55.154;14.722;2023-11-21T14:07:04;2.33;;;1.30;;
80961;SDS011;70424;55.154;14.722;2023-11-21T14:09:47;1.55;;;1.10;;
80961;SDS011;70424;55.154;14.722;2023-11-21T14:12:14;2.60;;;1.10;;
80961;SDS011;70424;55.154;14.722;2023-11-21T14:14:40;2.22;;;1.23;;
80961;SDS011;70424;55.154;14.722;2023-11-21T14:17:06;2.88;;;1.08;;
80961;SDS011;70424;55.154;14.722;2023-11-21T14:19:32;2.60;;;0.90;;
80961;SDS011;70424;55.154;14.722;2023-11-21T14:21:58;2.80;;;0.90;;
80961;SDS011;70424;55.154;14.722;2023-11-21T14:24:24;1.95;;;0.90;;
80961;SDS011;70424;55.154;14.722;2023-11-21T14:26:50;1.52;;;0.85;;
80961;SDS011;70424;55.154;14.722;2023-11-21T14:29:16;1.80;;;0.75;;
80961;SDS011;70424;55.154;14.722;2023-11-21T14:31:45;2.28;;;0.88;;
80961;SDS011;70424;55.154;14.722;2023-11-21T14:34:11;2.28;;;1.13;;
80961;SDS011;70424;55.154;14.722;2023-11-21T14:36:37;1.85;;;1.00;;
80961;SDS011;70424;55.154;14.722;2023-11-21T14:39:04;3.53;;;0.80;;
80961;SDS011;70424;55.154;14.722;2023-11-21T14:41:38;1.67;;;0.70;;
80961;SDS011;70424;55.154;14.722;2023-11-21T14:44:04;0.70;;;0.70;;
80961;SDS011;70424;55.154;14.722;2023-11-21T14:46:32;1.75;;;0.70;;
80961;SDS011;70424;55.154;14.722;2023-11-21T14:48:59;0.30;;;0.30;;
80961;SDS011;70424;55.154;14.722;2023-11-21T14:51:44;2.83;;;1.00;;